sensor_id;sensor_type;location;lat;lon;timestamp;P1;durP1;ratioP1;P2;durP2;ratioP2
28070;SDS011;15383;48.408;9.968;2023-04-15T06:53:28;4.10;;;2.45;;
28070;SDS011;15383;48.408;9.968;2023-04-15T06:55:54;38.45;;;4.55;;
28070;SDS011;15383;48.408;9.968;2023-04-15T06:58:20;19.63;;;3.20;;
28070;SDS011;15383;48.408;9.968;2023-04-15T07:00:46;10.88;;;3.05;;
28070;SDS011;15383;48.408;9.968;2023-04-15T07:03:11;21.10;;;4.53;;
28070;SDS011;15383;48.408;9.968;2023-04-15T07:05:37;17.88;;;6.40;;
28070;SDS011;15383;48.408;9.968;2023-04-15T07:08:03;32.33;;;7.72;;
28070;SDS011;15383;48.408;9.968;2023-04-15T07:10:29;30.88;;;8.38;;
28070;SDS011;15383;48.408;9.968;2023-04-15T07:12:55;30.08;;;7.70;;
28070;SDS011;15383;48.408;9.968;2023-04-15T07:15:21;39.85;;;10.75;;
28070;SDS011;15383;48.408;9.968;2023-04-15T07:17:50;35.42;;;10.63;;
28070;SDS011;15383;48.408;9.968;2023-04-15T07:20:16;31.17;;;10.13;;
28070;SDS011;15383;48.408;9.968;2023-04-15T07:22:42;40.38;;;10.00;;
28070;SDS011;15383;48.408;9.968;2023-04-15T07:25:08;38.22;;;9.90;;
28070;SDS011;15383;48.408;9.968;2023-04-15T07:27:33;30.25;;;9.55;;
28070;SDS011;15383;48.408;9.968;2023-04-15T07:29:59;30.05;;;9.15;;
28070;SDS011;15383;48.408;9.968;2023-04-15T07:32:25;37.13;;;9.50;;
28070;SDS011;15383;48.408;9.968;2023-04-15T07:34:51;38.55;;;8.20;;
28070;SDS011;15383;48.408;9.968;2023-04-15T07:37:17;22.92;;;8.20;;
28070;SDS011;15383;48.408;9.968;2023-04-15T07:39:43;23.92;;;8.25;;
28070;SDS011;15383;48.408;9.968;2023-04-15T07:42:10;40.17;;;8.13;;
28070;SDS011;15383;48.408;9.968;2023-04-15T07:44:35;38.30;;;8.82;;
28070;SDS011;15383;48.408;9.968;2023-04-15T07:47:01;40.13;;;7.22;;
28070;SDS011;15383;48.408;9.968;2023-04-15T07:49:28;40.00;;;9.00;;
28070;SDS011;15383;48.408;9.968;2023-04-15T07:51:53;37.10;;;8.50;;
28070;SDS011;15383;48.408;9.968;2023-04-15T07:54:20;30.50;;;7.45;;
28070;SDS011;15383;48.408;9.968;2023-04-15T07:56:45;35.58;;;7.18;;
28070;SDS011;15383;48.408;9.968;2023-04-15T07:59:11;37.80;;;8.35;;
28070;SDS011;15383;48.408;9.968;2023-04-15T08:01:37;41.92;;;8.95;;
28070;SDS011;15383;48.408;9.968;2023-04-15T08:04:02;31.73;;;7.18;;
28070;SDS011;15383;48.408;9.968;2023-04-15T08:06:28;22.52;;;7.43;;
28070;SDS011;15383;48.408;9.968;2023-04-15T08:08:54;20.40;;;6.95;;
28070;SDS011;15383;48.408;9.968;2023-04-15T08:11:20;27.13;;;6.13;;
28070;SDS011;15383;48.408;9.968;2023-04-15T08:13:46;48.08;;;7.10;;
28070;SDS011;15383;48.408;9.968;2023-04-15T08:16:22;31.58;;;6.18;;
28070;SDS011;15383;48.408;9.968;2023-04-15T08:18:49;26.45;;;6.53;;
28070;SDS011;15383;48.408;9.968;2023-04-15T08:21:16;29.05;;;7.35;;
28070;SDS011;15383;48.408;9.968;2023-04-15T08:23:42;32.60;;;6.38;;
28070;SDS011;15383;48.408;9.968;2023-04-15T08:26:09;32.85;;;6.93;;
28070;SDS011;15383;48.408;9.968;2023-04-15T08:28:38;56.42;;;6.15;;
28070;SDS011;15383;48.408;9.968;2023-04-15T08:31:05;31.98;;;6.40;;
28070;SDS011;15383;48.408;9.968;2023-04-15T08:33:30;16.75;;;4.95;;
28070;SDS011;15383;48.408;9.968;2023-04-15T08:35:56;22.33;;;5.30;;
28070;SDS011;15383;48.408;9.968;2023-04-15T08:38:21;26.02;;;4.68;;
28070;SDS011;15383;48.408;9.968;2023-04-15T08:40:47;23.95;;;4.57;;
28070;SDS011;15383;48.408;9.968;2023-04-15T08:43:23;17.55;;;4.63;;
28070;SDS011;15383;48.408;9.968;2023-04-15T08:45:53;30.83;;;4.70;;
28070;SDS011;15383;48.408;9.968;2023-04-15T08:48:19;15.32;;;4.47;;
28070;SDS011;15383;48.408;9.968;2023-04-15T08:50:46;14.98;;;4.10;;
28070;SDS011;15383;48.408;9.968;2023-04-15T08:53:13;21.90;;;3.95;;
28070;SDS011;15383;48.408;9.968;2023-04-15T08:55:45;64.45;;;6.50;;
28070;SDS011;15383;48.408;9.968;2023-04-15T08:58:16;121.55;;;10.07;;
28070;SDS011;15383;48.408;9.968;2023-04-15T09:00:43;94.32;;;9.45;;
28070;SDS011;15383;48.408;9.968;2023-04-15T09:03:08;75.90;;;7.15;;
28070;SDS011;15383;48.408;9.968;2023-04-15T09:05:34;96.53;;;8.70;;
28070;SDS011;15383;48.408;9.968;2023-04-15T09:08:01;65.85;;;7.18;;
28070;SDS011;15383;48.408;9.968;2023-04-15T09:10:27;84.38;;;8.75;;
28070;SDS011;15383;48.408;9.968;2023-04-15T09:12:53;78.18;;;7.97;;
28070;SDS011;15383;48.408;9.968;2023-04-15T09:15:19;63.55;;;6.63;;
28070;SDS011;15383;48.408;9.968;2023-04-15T09:17:45;66.18;;;8.00;;
28070;SDS011;15383;48.408;9.968;2023-04-15T09:20:13;47.72;;;5.88;;
28070;SDS011;15383;48.408;9.968;2023-04-15T09:22:40;96.10;;;7.18;;
28070;SDS011;15383;48.408;9.968;2023-04-15T09:27:50;44.00;;;6.03;;
28070;SDS011;15383;48.408;9.968;2023-04-15T09:30:17;48.22;;;7.18;;
28070;SDS011;15383;48.408;9.968;2023-04-15T09:32:56;31.10;;;6.22;;
28070;SDS011;15383;48.408;9.968;2023-04-15T09:35:23;57.42;;;5.68;;
28070;SDS011;15383;48.408;9.968;2023-04-15T09:37:50;31.58;;;5.85;;
28070;SDS011;15383;48.408;9.968;2023-04-15T09:40:35;26.35;;;5.57;;
28070;SDS011;15383;48.408;9.968;2023-04-15T09:43:06;32.72;;;7.13;;
28070;SDS011;15383;48.408;9.968;2023-04-15T09:45:34;34.35;;;5.22;;
28070;SDS011;15383;48.408;9.968;2023-04-15T09:48:19;24.67;;;5.75;;
28070;SDS011;15383;48.408;9.968;2023-04-15T09:50:49;26.42;;;5.22;;
28070;SDS011;15383;48.408;9.968;2023-04-15T09:53:18;26.60;;;5.03;;
28070;SDS011;15383;48.408;9.968;2023-04-15T09:55:49;31.98;;;5.85;;
28070;SDS011;15383;48.408;9.968;2023-04-15T09:58:19;19.83;;;5.13;;
28070;SDS011;15383;48.408;9.968;2023-04-15T10:00:47;28.92;;;5.50;;
28070;SDS011;15383;48.408;9.968;2023-04-15T10:03:23;24.20;;;4.35;;
28070;SDS011;15383;48.408;9.968;2023-04-15T10:05:52;26.92;;;5.07;;
28070;SDS011;15383;48.408;9.968;2023-04-15T10:08:20;16.00;;;4.22;;
28070;SDS011;15383;48.408;9.968;2023-04-15T10:10:48;25.10;;;4.50;;
28070;SDS011;15383;48.408;9.968;2023-04-15T10:13:15;16.10;;;4.20;;
28070;SDS011;15383;48.408;9.968;2023-04-15T10:15:43;16.23;;;4.03;;
28070;SDS011;15383;48.408;9.968;2023-04-15T10:18:14;12.15;;;4.72;;
28070;SDS011;15383;48.408;9.968;2023-04-15T10:20:43;14.70;;;3.95;;
28070;SDS011;15383;48.408;9.968;2023-04-15T10:23:11;33.97;;;4.45;;
28070;SDS011;15383;48.408;9.968;2023-04-15T10:25:38;24.95;;;4.68;;
28070;SDS011;15383;48.408;9.968;2023-04-15T10:28:05;20.25;;;4.60;;
28070;SDS011;15383;48.408;9.968;2023-04-15T10:30:32;20.15;;;3.40;;
28070;SDS011;15383;48.408;9.968;2023-04-15T10:32:58;15.75;;;4.25;;
28070;SDS011;15383;48.408;9.968;2023-04-15T10:35:25;20.40;;;3.42;;
28070;SDS011;15383;48.408;9.968;2023-04-15T10:37:52;22.55;;;4.47;;
28070;SDS011;15383;48.408;9.968;2023-04-15T10:40:25;22.67;;;5.70;;
28070;SDS011;15383;48.408;9.968;2023-04-15T10:42:56;23.10;;;5.72;;
28070;SDS011;15383;48.408;9.968;2023-04-15T10:45:26;27.70;;;6.22;;
28070;SDS011;15383;48.408;9.968;2023-04-15T10:47:54;17.63;;;6.03;;
28070;SDS011;15383;48.408;9.968;2023-04-15T10:50:21;16.48;;;5.00;;
28070;SDS011;15383;48.408;9.968;2023-04-15T10:52:49;14.82;;;4.97;;
28070;SDS011;15383;48.408;9.968;2023-04-15T10:55:24;17.73;;;6.53;;
28070;SDS011;15383;48.408;9.968;2023-04-15T10:57:55;17.00;;;5.53;;
28070;SDS011;15383;48.408;9.968;2023-04-15T11:00:25;16.40;;;5.47;;
28070;SDS011;15383;48.408;9.968;2023-04-15T11:03:05;22.30;;;5.82;;
28070;SDS011;15383;48.408;9.968;2023-04-15T11:08:13;20.60;;;5.65;;
28070;SDS011;15383;48.408;9.968;2023-04-15T11:15:44;19.38;;;6.55;;
28070;SDS011;15383;48.408;9.968;2023-04-15T11:20:50;17.50;;;5.35;;
28070;SDS011;15383;48.408;9.968;2023-04-15T11:23:34;18.92;;;5.13;;
28070;SDS011;15383;48.408;9.968;2023-04-15T11:26:02;23.35;;;5.25;;
28070;SDS011;15383;48.408;9.968;2023-04-15T11:28:31;26.23;;;6.18;;
28070;SDS011;15383;48.408;9.968;2023-04-15T11:30:57;25.20;;;6.35;;
28070;SDS011;15383;48.408;9.968;2023-04-15T11:33:29;22.25;;;5.57;;
28070;SDS011;15383;48.408;9.968;2023-04-15T11:35:55;23.48;;;6.43;;
28070;SDS011;15383;48.408;9.968;2023-04-15T11:38:21;21.65;;;5.35;;
28070;SDS011;15383;48.408;9.968;2023-04-15T11:40:46;20.38;;;5.90;;
28070;SDS011;15383;48.408;9.968;2023-04-15T11:45:55;17.45;;;5.65;;
28070;SDS011;15383;48.408;9.968;2023-04-15T11:48:28;20.90;;;5.55;;
28070;SDS011;15383;48.408;9.968;2023-04-15T11:51:01;20.70;;;4.53;;
28070;SDS011;15383;48.408;9.968;2023-04-15T11:53:44;14.63;;;5.85;;
28070;SDS011;15383;48.408;9.968;2023-04-15T11:56:21;20.75;;;4.38;;
28070;SDS011;15383;48.408;9.968;2023-04-15T11:58:50;21.85;;;4.78;;
28070;SDS011;15383;48.408;9.968;2023-04-15T12:04:18;18.80;;;5.22;;
28070;SDS011;15383;48.408;9.968;2023-04-15T12:06:46;13.13;;;4.35;;
28070;SDS011;15383;48.408;9.968;2023-04-15T12:09:13;17.25;;;4.85;;
28070;SDS011;15383;48.408;9.968;2023-04-15T12:11:48;17.47;;;4.40;;
28070;SDS011;15383;48.408;9.968;2023-04-15T12:14:26;12.38;;;4.20;;
28070;SDS011;15383;48.408;9.968;2023-04-15T12:16:54;23.35;;;5.25;;
28070;SDS011;15383;48.408;9.968;2023-04-15T12:19:23;20.95;;;5.20;;
28070;SDS011;15383;48.408;9.968;2023-04-15T12:21:56;21.90;;;4.63;;
28070;SDS011;15383;48.408;9.968;2023-04-15T12:24:24;15.40;;;5.13;;
28070;SDS011;15383;48.408;9.968;2023-04-15T12:26:53;18.70;;;4.53;;
28070;SDS011;15383;48.408;9.968;2023-04-15T12:29:24;14.50;;;3.95;;
28070;SDS011;15383;48.408;9.968;2023-04-15T12:31:53;12.20;;;3.95;;
28070;SDS011;15383;48.408;9.968;2023-04-15T12:34:29;16.08;;;5.15;;
28070;SDS011;15383;48.408;9.968;2023-04-15T12:36:57;14.93;;;4.55;;
28070;SDS011;15383;48.408;9.968;2023-04-15T12:39:25;12.02;;;4.07;;
28070;SDS011;15383;48.408;9.968;2023-04-15T12:41:53;21.15;;;3.67;;
28070;SDS011;15383;48.408;9.968;2023-04-15T12:44:19;12.45;;;4.00;;
28070;SDS011;15383;48.408;9.968;2023-04-15T12:46:47;11.65;;;3.85;;
28070;SDS011;15383;48.408;9.968;2023-04-15T12:49:12;12.70;;;4.15;;
28070;SDS011;15383;48.408;9.968;2023-04-15T12:51:43;17.80;;;4.55;;
28070;SDS011;15383;48.408;9.968;2023-04-15T12:54:09;15.90;;;3.65;;
28070;SDS011;15383;48.408;9.968;2023-04-15T12:56:35;20.40;;;4.55;;
28070;SDS011;15383;48.408;9.968;2023-04-15T12:59:00;14.85;;;4.10;;
28070;SDS011;15383;48.408;9.968;2023-04-15T13:01:26;11.40;;;4.22;;
28070;SDS011;15383;48.408;9.968;2023-04-15T13:03:52;25.30;;;4.35;;
28070;SDS011;15383;48.408;9.968;2023-04-15T13:06:17;12.45;;;3.92;;
28070;SDS011;15383;48.408;9.968;2023-04-15T13:08:43;17.42;;;3.60;;
28070;SDS011;15383;48.408;9.968;2023-04-15T13:11:09;41.80;;;5.70;;
28070;SDS011;15383;48.408;9.968;2023-04-15T13:13:34;13.38;;;3.30;;
28070;SDS011;15383;48.408;9.968;2023-04-15T13:16:00;13.80;;;4.45;;
28070;SDS011;15383;48.408;9.968;2023-04-15T13:18:25;13.02;;;3.60;;
28070;SDS011;15383;48.408;9.968;2023-04-15T13:20:51;20.23;;;3.55;;
28070;SDS011;15383;48.408;9.968;2023-04-15T13:23:18;12.65;;;3.58;;
28070;SDS011;15383;48.408;9.968;2023-04-15T13:25:43;29.08;;;5.93;;
28070;SDS011;15383;48.408;9.968;2023-04-15T13:28:10;18.48;;;3.65;;
28070;SDS011;15383;48.408;9.968;2023-04-15T13:30:36;16.08;;;3.63;;
28070;SDS011;15383;48.408;9.968;2023-04-15T13:33:03;15.80;;;3.35;;
28070;SDS011;15383;48.408;9.968;2023-04-15T13:35:30;16.23;;;3.85;;
28070;SDS011;15383;48.408;9.968;2023-04-15T13:37:56;42.80;;;4.05;;
28070;SDS011;15383;48.408;9.968;2023-04-15T13:40:22;16.75;;;3.90;;
28070;SDS011;15383;48.408;9.968;2023-04-15T13:42:47;17.30;;;3.40;;
28070;SDS011;15383;48.408;9.968;2023-04-15T13:45:13;15.88;;;3.40;;
28070;SDS011;15383;48.408;9.968;2023-04-15T13:47:39;22.02;;;4.13;;
28070;SDS011;15383;48.408;9.968;2023-04-15T13:50:05;11.82;;;3.22;;
28070;SDS011;15383;48.408;9.968;2023-04-15T13:52:31;17.02;;;3.83;;
28070;SDS011;15383;48.408;9.968;2023-04-15T13:54:56;11.02;;;2.97;;
28070;SDS011;15383;48.408;9.968;2023-04-15T13:57:22;12.43;;;3.80;;
28070;SDS011;15383;48.408;9.968;2023-04-15T13:59:47;15.35;;;3.08;;
28070;SDS011;15383;48.408;9.968;2023-04-15T14:02:13;10.57;;;3.10;;
28070;SDS011;15383;48.408;9.968;2023-04-15T14:04:38;12.15;;;3.35;;
28070;SDS011;15383;48.408;9.968;2023-04-15T14:07:04;13.07;;;3.22;;
28070;SDS011;15383;48.408;9.968;2023-04-15T14:09:30;12.40;;;3.20;;
28070;SDS011;15383;48.408;9.968;2023-04-15T14:11:55;13.82;;;3.25;;
28070;SDS011;15383;48.408;9.968;2023-04-15T14:14:22;15.75;;;3.45;;
28070;SDS011;15383;48.408;9.968;2023-04-15T14:16:48;15.68;;;3.63;;
28070;SDS011;15383;48.408;9.968;2023-04-15T14:19:13;8.02;;;2.55;;
28070;SDS011;15383;48.408;9.968;2023-04-15T14:21:39;12.75;;;3.63;;
28070;SDS011;15383;48.408;9.968;2023-04-15T14:24:05;28.40;;;3.83;;
28070;SDS011;15383;48.408;9.968;2023-04-15T14:26:30;10.40;;;3.08;;
28070;SDS011;15383;48.408;9.968;2023-04-15T14:28:56;9.32;;;2.70;;
28070;SDS011;15383;48.408;9.968;2023-04-15T14:31:22;13.00;;;2.92;;
28070;SDS011;15383;48.408;9.968;2023-04-15T14:33:47;11.63;;;2.90;;
28070;SDS011;15383;48.408;9.968;2023-04-15T14:36:13;8.68;;;2.30;;
28070;SDS011;15383;48.408;9.968;2023-04-15T14:38:38;10.55;;;2.85;;
28070;SDS011;15383;48.408;9.968;2023-04-15T14:41:05;16.52;;;3.17;;
28070;SDS011;15383;48.408;9.968;2023-04-15T14:43:31;10.73;;;2.72;;
28070;SDS011;15383;48.408;9.968;2023-04-15T14:45:57;9.05;;;2.30;;
28070;SDS011;15383;48.408;9.968;2023-04-15T14:48:22;11.63;;;2.47;;
28070;SDS011;15383;48.408;9.968;2023-04-15T14:50:48;11.55;;;2.78;;
28070;SDS011;15383;48.408;9.968;2023-04-15T14:53:13;10.82;;;2.40;;
28070;SDS011;15383;48.408;9.968;2023-04-15T14:55:39;7.25;;;2.92;;
28070;SDS011;15383;48.408;9.968;2023-04-15T14:58:05;5.38;;;2.30;;
28070;SDS011;15383;48.408;9.968;2023-04-15T15:00:33;5.72;;;2.58;;
28070;SDS011;15383;48.408;9.968;2023-04-15T15:02:59;10.63;;;2.85;;
28070;SDS011;15383;48.408;9.968;2023-04-15T15:05:25;9.50;;;2.20;;
28070;SDS011;15383;48.408;9.968;2023-04-15T15:07:51;8.95;;;2.67;;
28070;SDS011;15383;48.408;9.968;2023-04-15T15:10:16;11.30;;;2.33;;
28070;SDS011;15383;48.408;9.968;2023-04-15T15:12:42;10.00;;;2.13;;
28070;SDS011;15383;48.408;9.968;2023-04-15T15:15:07;6.93;;;2.47;;
28070;SDS011;15383;48.408;9.968;2023-04-15T15:17:34;4.97;;;2.42;;
28070;SDS011;15383;48.408;9.968;2023-04-15T15:20:00;5.25;;;2.08;;
28070;SDS011;15383;48.408;9.968;2023-04-15T15:22:27;8.45;;;2.60;;
28070;SDS011;15383;48.408;9.968;2023-04-15T15:24:52;6.70;;;2.20;;
28070;SDS011;15383;48.408;9.968;2023-04-15T15:27:18;3.28;;;2.08;;
28070;SDS011;15383;48.408;9.968;2023-04-15T15:29:44;6.80;;;2.08;;
28070;SDS011;15383;48.408;9.968;2023-04-15T15:32:09;7.35;;;2.83;;
28070;SDS011;15383;48.408;9.968;2023-04-15T15:34:35;8.40;;;2.50;;
28070;SDS011;15383;48.408;9.968;2023-04-15T15:37:00;9.13;;;2.25;;
28070;SDS011;15383;48.408;9.968;2023-04-15T15:39:26;10.90;;;2.15;;
28070;SDS011;15383;48.408;9.968;2023-04-15T15:41:52;6.53;;;2.40;;
28070;SDS011;15383;48.408;9.968;2023-04-15T15:44:17;4.57;;;2.10;;
28070;SDS011;15383;48.408;9.968;2023-04-15T15:46:43;5.03;;;2.13;;
28070;SDS011;15383;48.408;9.968;2023-04-15T15:49:09;6.97;;;2.60;;
28070;SDS011;15383;48.408;9.968;2023-04-15T15:51:35;7.13;;;1.92;;
28070;SDS011;15383;48.408;9.968;2023-04-15T15:54:01;4.53;;;2.00;;
28070;SDS011;15383;48.408;9.968;2023-04-15T15:56:26;4.43;;;1.98;;
28070;SDS011;15383;48.408;9.968;2023-04-15T15:58:52;6.15;;;2.40;;
28070;SDS011;15383;48.408;9.968;2023-04-15T16:01:17;6.40;;;2.13;;
28070;SDS011;15383;48.408;9.968;2023-04-15T16:03:43;11.48;;;2.63;;
28070;SDS011;15383;48.408;9.968;2023-04-15T16:06:08;5.18;;;1.90;;
28070;SDS011;15383;48.408;9.968;2023-04-15T16:08:34;9.80;;;2.38;;
28070;SDS011;15383;48.408;9.968;2023-04-15T16:10:59;8.07;;;2.05;;
28070;SDS011;15383;48.408;9.968;2023-04-15T16:13:25;5.55;;;2.30;;
28070;SDS011;15383;48.408;9.968;2023-04-15T16:15:51;10.20;;;1.83;;
28070;SDS011;15383;48.408;9.968;2023-04-15T16:18:17;5.07;;;1.65;;
28070;SDS011;15383;48.408;9.968;2023-04-15T16:20:43;7.57;;;2.45;;
28070;SDS011;15383;48.408;9.968;2023-04-15T16:23:12;8.57;;;1.92;;
28070;SDS011;15383;48.408;9.968;2023-04-15T16:25:42;7.72;;;2.30;;
28070;SDS011;15383;48.408;9.968;2023-04-15T16:28:09;3.30;;;2.03;;
28070;SDS011;15383;48.408;9.968;2023-04-15T16:30:35;4.20;;;2.10;;
28070;SDS011;15383;48.408;9.968;2023-04-15T16:33:02;12.10;;;2.25;;
28070;SDS011;15383;48.408;9.968;2023-04-15T16:35:28;9.32;;;3.45;;
28070;SDS011;15383;48.408;9.968;2023-04-15T16:37:54;14.20;;;3.97;;
28070;SDS011;15383;48.408;9.968;2023-04-15T16:40:19;20.98;;;4.45;;
28070;SDS011;15383;48.408;9.968;2023-04-15T16:42:45;17.02;;;5.07;;
28070;SDS011;15383;48.408;9.968;2023-04-15T16:45:10;9.52;;;4.03;;
28070;SDS011;15383;48.408;9.968;2023-04-15T16:47:36;14.98;;;4.15;;
28070;SDS011;15383;48.408;9.968;2023-04-15T16:50:01;20.00;;;3.80;;
28070;SDS011;15383;48.408;9.968;2023-04-15T16:52:28;14.13;;;3.88;;
28070;SDS011;15383;48.408;9.968;2023-04-15T16:54:53;15.57;;;3.83;;
28070;SDS011;15383;48.408;9.968;2023-04-15T16:57:19;10.20;;;4.15;;
28070;SDS011;15383;48.408;9.968;2023-04-15T16:59:45;25.55;;;4.15;;
28070;SDS011;15383;48.408;9.968;2023-04-15T17:02:13;18.60;;;4.40;;
28070;SDS011;15383;48.408;9.968;2023-04-15T17:04:39;21.13;;;5.57;;
28070;SDS011;15383;48.408;9.968;2023-04-15T17:07:05;19.48;;;4.93;;
28070;SDS011;15383;48.408;9.968;2023-04-15T17:09:32;21.10;;;4.80;;
28070;SDS011;15383;48.408;9.968;2023-04-15T17:11:58;22.98;;;6.55;;
28070;SDS011;15383;48.408;9.968;2023-04-15T17:14:25;20.85;;;6.43;;
28070;SDS011;15383;48.408;9.968;2023-04-15T17:16:52;23.27;;;5.60;;
28070;SDS011;15383;48.408;9.968;2023-04-15T17:19:18;24.55;;;5.82;;
28070;SDS011;15383;48.408;9.968;2023-04-15T17:21:43;26.65;;;6.68;;
28070;SDS011;15383;48.408;9.968;2023-04-15T17:24:09;29.38;;;6.60;;
28070;SDS011;15383;48.408;9.968;2023-04-15T17:26:35;38.53;;;8.30;;
28070;SDS011;15383;48.408;9.968;2023-04-15T17:29:00;27.90;;;7.35;;
28070;SDS011;15383;48.408;9.968;2023-04-15T17:31:26;35.67;;;9.80;;
28070;SDS011;15383;48.408;9.968;2023-04-15T17:33:53;37.05;;;9.05;;
28070;SDS011;15383;48.408;9.968;2023-04-15T17:36:19;41.30;;;9.70;;
28070;SDS011;15383;48.408;9.968;2023-04-15T17:38:45;39.28;;;9.73;;
28070;SDS011;15383;48.408;9.968;2023-04-15T17:41:11;49.17;;;10.73;;
28070;SDS011;15383;48.408;9.968;2023-04-15T17:43:37;34.85;;;9.25;;
28070;SDS011;15383;48.408;9.968;2023-04-15T17:46:02;45.30;;;11.48;;
28070;SDS011;15383;48.408;9.968;2023-04-15T17:48:28;39.33;;;10.20;;
28070;SDS011;15383;48.408;9.968;2023-04-15T17:50:53;38.65;;;10.88;;
28070;SDS011;15383;48.408;9.968;2023-04-15T17:53:19;41.88;;;10.82;;
28070;SDS011;15383;48.408;9.968;2023-04-15T17:55:44;38.45;;;10.35;;
28070;SDS011;15383;48.408;9.968;2023-04-15T17:58:10;31.35;;;9.30;;
28070;SDS011;15383;48.408;9.968;2023-04-15T18:00:36;36.03;;;10.02;;
28070;SDS011;15383;48.408;9.968;2023-04-15T18:03:01;40.83;;;10.45;;
28070;SDS011;15383;48.408;9.968;2023-04-15T18:05:28;41.30;;;10.70;;
28070;SDS011;15383;48.408;9.968;2023-04-15T18:07:53;48.58;;;10.48;;
28070;SDS011;15383;48.408;9.968;2023-04-15T18:10:19;34.33;;;10.70;;
28070;SDS011;15383;48.408;9.968;2023-04-15T18:12:45;44.47;;;12.55;;
28070;SDS011;15383;48.408;9.968;2023-04-15T18:15:11;43.17;;;9.98;;
28070;SDS011;15383;48.408;9.968;2023-04-15T18:17:38;37.13;;;11.00;;
28070;SDS011;15383;48.408;9.968;2023-04-15T18:20:04;57.63;;;11.60;;
28070;SDS011;15383;48.408;9.968;2023-04-15T18:22:30;54.83;;;10.48;;
28070;SDS011;15383;48.408;9.968;2023-04-15T18:24:56;55.92;;;10.88;;
28070;SDS011;15383;48.408;9.968;2023-04-15T18:27:27;72.13;;;11.20;;
28070;SDS011;15383;48.408;9.968;2023-04-15T18:29:54;64.45;;;10.63;;
28070;SDS011;15383;48.408;9.968;2023-04-15T18:32:19;69.15;;;10.88;;
28070;SDS011;15383;48.408;9.968;2023-04-15T18:34:45;32.47;;;9.60;;
28070;SDS011;15383;48.408;9.968;2023-04-15T18:37:11;42.88;;;9.82;;
28070;SDS011;15383;48.408;9.968;2023-04-15T18:39:36;43.38;;;10.65;;
28070;SDS011;15383;48.408;9.968;2023-04-15T18:42:02;56.85;;;10.55;;
28070;SDS011;15383;48.408;9.968;2023-04-15T18:44:27;43.50;;;9.85;;
28070;SDS011;15383;48.408;9.968;2023-04-15T18:46:53;33.63;;;9.68;;
28070;SDS011;15383;48.408;9.968;2023-04-15T18:49:18;49.60;;;9.55;;
28070;SDS011;15383;48.408;9.968;2023-04-15T18:51:44;37.15;;;8.35;;
28070;SDS011;15383;48.408;9.968;2023-04-15T18:54:10;41.05;;;9.63;;
28070;SDS011;15383;48.408;9.968;2023-04-15T18:56:36;36.20;;;8.52;;
28070;SDS011;15383;48.408;9.968;2023-04-15T18:59:02;39.40;;;9.48;;
28070;SDS011;15383;48.408;9.968;2023-04-15T19:01:27;34.75;;;9.43;;
28070;SDS011;15383;48.408;9.968;2023-04-15T19:03:53;41.47;;;10.60;;
28070;SDS011;15383;48.408;9.968;2023-04-15T19:06:18;31.27;;;8.70;;
28070;SDS011;15383;48.408;9.968;2023-04-15T19:08:44;30.35;;;8.45;;
28070;SDS011;15383;48.408;9.968;2023-04-15T19:11:10;43.42;;;9.00;;
28070;SDS011;15383;48.408;9.968;2023-04-15T19:13:35;29.55;;;7.03;;
28070;SDS011;15383;48.408;9.968;2023-04-15T19:16:01;35.88;;;8.52;;
28070;SDS011;15383;48.408;9.968;2023-04-15T19:18:27;39.97;;;9.57;;
28070;SDS011;15383;48.408;9.968;2023-04-15T19:20:52;33.20;;;7.95;;
28070;SDS011;15383;48.408;9.968;2023-04-15T19:23:20;27.15;;;7.68;;
28070;SDS011;15383;48.408;9.968;2023-04-15T19:25:47;27.42;;;7.70;;
28070;SDS011;15383;48.408;9.968;2023-04-15T19:28:13;41.00;;;8.63;;
28070;SDS011;15383;48.408;9.968;2023-04-15T19:30:39;26.40;;;7.82;;
28070;SDS011;15383;48.408;9.968;2023-04-15T19:33:05;39.03;;;8.05;;
28070;SDS011;15383;48.408;9.968;2023-04-15T19:35:31;30.95;;;7.68;;
28070;SDS011;15383;48.408;9.968;2023-04-15T19:37:57;29.23;;;7.28;;
28070;SDS011;15383;48.408;9.968;2023-04-15T19:40:22;22.13;;;7.35;;
28070;SDS011;15383;48.408;9.968;2023-04-15T19:42:48;34.50;;;7.70;;
28070;SDS011;15383;48.408;9.968;2023-04-15T19:45:13;21.02;;;7.25;;
28070;SDS011;15383;48.408;9.968;2023-04-15T19:47:39;26.30;;;6.85;;
28070;SDS011;15383;48.408;9.968;2023-04-15T19:50:05;34.78;;;9.30;;
28070;SDS011;15383;48.408;9.968;2023-04-15T19:52:32;38.80;;;8.75;;
28070;SDS011;15383;48.408;9.968;2023-04-15T19:54:58;38.80;;;8.43;;
28070;SDS011;15383;48.408;9.968;2023-04-15T19:57:23;30.30;;;8.82;;
28070;SDS011;15383;48.408;9.968;2023-04-15T19:59:49;56.53;;;8.95;;
28070;SDS011;15383;48.408;9.968;2023-04-15T20:02:15;34.97;;;7.95;;
28070;SDS011;15383;48.408;9.968;2023-04-15T20:04:40;40.55;;;7.65;;
28070;SDS011;15383;48.408;9.968;2023-04-15T20:07:06;30.05;;;8.48;;
28070;SDS011;15383;48.408;9.968;2023-04-15T20:09:32;36.40;;;8.45;;
28070;SDS011;15383;48.408;9.968;2023-04-15T20:11:57;22.48;;;7.43;;
28070;SDS011;15383;48.408;9.968;2023-04-15T20:14:23;31.05;;;7.68;;
28070;SDS011;15383;48.408;9.968;2023-04-15T20:16:49;34.10;;;8.00;;
28070;SDS011;15383;48.408;9.968;2023-04-15T20:19:15;28.77;;;7.78;;
28070;SDS011;15383;48.408;9.968;2023-04-15T20:21:40;27.98;;;8.05;;
28070;SDS011;15383;48.408;9.968;2023-04-15T20:24:06;25.83;;;8.35;;
28070;SDS011;15383;48.408;9.968;2023-04-15T20:26:32;25.80;;;6.80;;
28070;SDS011;15383;48.408;9.968;2023-04-15T20:28:57;38.13;;;8.38;;
28070;SDS011;15383;48.408;9.968;2023-04-15T20:31:24;56.08;;;8.05;;
28070;SDS011;15383;48.408;9.968;2023-04-15T20:33:50;32.50;;;7.45;;
28070;SDS011;15383;48.408;9.968;2023-04-15T20:36:15;27.95;;;8.25;;
28070;SDS011;15383;48.408;9.968;2023-04-15T20:38:41;34.50;;;7.03;;
28070;SDS011;15383;48.408;9.968;2023-04-15T20:41:06;28.98;;;7.68;;
28070;SDS011;15383;48.408;9.968;2023-04-15T20:43:32;20.27;;;7.57;;
28070;SDS011;15383;48.408;9.968;2023-04-15T20:45:57;30.13;;;6.88;;
28070;SDS011;15383;48.408;9.968;2023-04-15T20:48:23;24.83;;;7.07;;
28070;SDS011;15383;48.408;9.968;2023-04-15T20:50:49;23.45;;;6.50;;
28070;SDS011;15383;48.408;9.968;2023-04-15T20:53:14;22.67;;;6.20;;
28070;SDS011;15383;48.408;9.968;2023-04-15T20:55:40;28.52;;;7.03;;
28070;SDS011;15383;48.408;9.968;2023-04-15T20:58:08;25.55;;;7.70;;
28070;SDS011;15383;48.408;9.968;2023-04-15T21:00:34;26.52;;;6.72;;
28070;SDS011;15383;48.408;9.968;2023-04-15T21:03:00;26.25;;;7.13;;
28070;SDS011;15383;48.408;9.968;2023-04-15T21:05:26;23.38;;;6.80;;
28070;SDS011;15383;48.408;9.968;2023-04-15T21:07:51;27.95;;;7.32;;
28070;SDS011;15383;48.408;9.968;2023-04-15T21:10:18;24.27;;;7.53;;
28070;SDS011;15383;48.408;9.968;2023-04-15T21:12:43;23.63;;;7.53;;
28070;SDS011;15383;48.408;9.968;2023-04-15T21:15:10;31.67;;;7.00;;
28070;SDS011;15383;48.408;9.968;2023-04-15T21:17:35;37.70;;;6.35;;
28070;SDS011;15383;48.408;9.968;2023-04-15T21:20:01;20.40;;;6.15;;
28070;SDS011;15383;48.408;9.968;2023-04-15T21:22:27;26.77;;;6.68;;
28070;SDS011;15383;48.408;9.968;2023-04-15T21:24:52;17.02;;;5.88;;
28070;SDS011;15383;48.408;9.968;2023-04-15T21:27:18;24.10;;;6.53;;
28070;SDS011;15383;48.408;9.968;2023-04-15T21:29:43;23.50;;;6.57;;
28070;SDS011;15383;48.408;9.968;2023-04-15T21:32:09;22.35;;;6.53;;
28070;SDS011;15383;48.408;9.968;2023-04-15T21:34:35;38.92;;;6.07;;
28070;SDS011;15383;48.408;9.968;2023-04-15T21:37:00;22.90;;;6.13;;
28070;SDS011;15383;48.408;9.968;2023-04-15T21:39:26;19.27;;;5.50;;
28070;SDS011;15383;48.408;9.968;2023-04-15T21:41:52;20.48;;;6.28;;
28070;SDS011;15383;48.408;9.968;2023-04-15T21:44:17;25.75;;;6.47;;